sensor_id;sensor_type;location;lat;lon;timestamp;temperature;humidity
2543;DHT22;1116;51.502;7.414;2024-03-23T00:55:25;8.70;99.90
2543;DHT22;1116;51.502;7.414;2024-03-23T00:57:52;8.70;99.90
2543;DHT22;1116;51.502;7.414;2024-03-23T01:00:18;8.60;99.90
2543;DHT22;1116;51.502;7.414;2024-03-23T01:02:44;8.60;99.90
2543;DHT22;1116;51.502;7.414;2024-03-23T01:05:11;8.60;99.90
2543;DHT22;1116;51.502;7.414;2024-03-23T01:07:37;8.60;99.90
2543;DHT22;1116;51.502;7.414;2024-03-23T01:10:07;8.60;99.90
2543;DHT22;1116;51.502;7.414;2024-03-23T01:12:33;8.60;99.90
2543;DHT22;1116;51.502;7.414;2024-03-23T01:14:59;8.60;99.90
2543;DHT22;1116;51.502;7.414;2024-03-23T01:17:25;8.60;99.90
2543;DHT22;1116;51.502;7.414;2024-03-23T01:19:52;8.60;99.90
2543;DHT22;1116;51.502;7.414;2024-03-23T01:22:18;8.60;99.90
2543;DHT22;1116;51.502;7.414;2024-03-23T01:24:45;8.60;99.90
2543;DHT22;1116;51.502;7.414;2024-03-23T01:27:14;8.50;99.90
2543;DHT22;1116;51.502;7.414;2024-03-23T01:29:40;8.50;99.90
2543;DHT22;1116;51.502;7.414;2024-03-23T01:32:07;8.50;99.90
2543;DHT22;1116;51.502;7.414;2024-03-23T01:34:33;8.50;99.90
2543;DHT22;1116;51.502;7.414;2024-03-23T01:37:00;8.40;99.90
2543;DHT22;1116;51.502;7.414;2024-03-23T01:39:26;8.40;99.90
2543;DHT22;1116;51.502;7.414;2024-03-23T01:41:52;8.40;99.90
2543;DHT22;1116;51.502;7.414;2024-03-23T01:44:22;8.30;99.90
2543;DHT22;1116;51.502;7.414;2024-03-23T01:46:48;8.20;99.90
2543;DHT22;1116;51.502;7.414;2024-03-23T01:49:15;8.10;99.90
2543;DHT22;1116;51.502;7.414;2024-03-23T01:51:42;8.10;99.90
2543;DHT22;1116;51.502;7.414;2024-03-23T01:54:09;8.10;99.90
2543;DHT22;1116;51.502;7.414;2024-03-23T01:56:36;8.10;99.90
2543;DHT22;1116;51.502;7.414;2024-03-23T01:59:02;8.10;99.90
2543;DHT22;1116;51.502;7.414;2024-03-23T02:01:32;8.00;99.90
2543;DHT22;1116;51.502;7.414;2024-03-23T02:03:58;7.90;95.70
2543;DHT22;1116;51.502;7.414;2024-03-23T02:06:27;7.80;92.70
2543;DHT22;1116;51.502;7.414;2024-03-23T02:08:54;7.80;92.40
2543;DHT22;1116;51.502;7.414;2024-03-23T02:11:21;7.80;89.10
2543;DHT22;1116;51.502;7.414;2024-03-23T02:13:47;7.90;90.50
2543;DHT22;1116;51.502;7.414;2024-03-23T02:16:14;7.90;91.20
2543;DHT22;1116;51.502;7.414;2024-03-23T02:18:43;7.90;92.70
2543;DHT22;1116;51.502;7.414;2024-03-23T02:21:09;7.90;92.70
2543;DHT22;1116;51.502;7.414;2024-03-23T02:23:38;7.90;92.60
2543;DHT22;1116;51.502;7.414;2024-03-23T02:26:04;7.80;94.70
2543;DHT22;1116;51.502;7.414;2024-03-23T02:28:31;7.80;97.60
2543;DHT22;1116;51.502;7.414;2024-03-23T02:30:57;7.90;99.90
2543;DHT22;1116;51.502;7.414;2024-03-23T02:33:24;7.80;98.80
2543;DHT22;1116;51.502;7.414;2024-03-23T02:35:50;7.80;93.60
2543;DHT22;1116;51.502;7.414;2024-03-23T02:38:16;7.90;90.60
2543;DHT22;1116;51.502;7.414;2024-03-23T02:40:45;7.80;90.00
2543;DHT22;1116;51.502;7.414;2024-03-23T02:43:11;7.80;92.40
2543;DHT22;1116;51.502;7.414;2024-03-23T02:45:38;7.80;93.70
2543;DHT22;1116;51.502;7.414;2024-03-23T02:48:05;7.80;91.90
2543;DHT22;1116;51.502;7.414;2024-03-23T02:50:31;7.80;91.90
2543;DHT22;1116;51.502;7.414;2024-03-23T02:52:57;7.80;93.70
2543;DHT22;1116;51.502;7.414;2024-03-23T02:55:24;7.80;91.60
2543;DHT22;1116;51.502;7.414;2024-03-23T02:57:53;7.80;94.50
2543;DHT22;1116;51.502;7.414;2024-03-23T03:00:19;7.80;95.00
2543;DHT22;1116;51.502;7.414;2024-03-23T03:02:46;7.80;99.80
2543;DHT22;1116;51.502;7.414;2024-03-23T03:05:15;7.80;99.90
2543;DHT22;1116;51.502;7.414;2024-03-23T03:07:41;7.70;98.50
2543;DHT22;1116;51.502;7.414;2024-03-23T03:10:07;7.60;96.60
2543;DHT22;1116;51.502;7.414;2024-03-23T03:12:34;7.50;81.60
2543;DHT22;1116;51.502;7.414;2024-03-23T03:15:04;7.40;80.90
2543;DHT22;1116;51.502;7.414;2024-03-23T03:17:30;7.40;77.30
2543;DHT22;1116;51.502;7.414;2024-03-23T03:19:57;7.40;76.10
2543;DHT22;1116;51.502;7.414;2024-03-23T03:22:23;7.40;78.50
2543;DHT22;1116;51.502;7.414;2024-03-23T03:24:49;7.50;78.50
2543;DHT22;1116;51.502;7.414;2024-03-23T03:27:16;7.50;75.80
2543;DHT22;1116;51.502;7.414;2024-03-23T03:29:42;7.60;81.10
2543;DHT22;1116;51.502;7.414;2024-03-23T03:32:11;7.60;78.40
2543;DHT22;1116;51.502;7.414;2024-03-23T03:34:38;7.20;74.70
2543;DHT22;1116;51.502;7.414;2024-03-23T03:37:04;7.60;88.10
2543;DHT22;1116;51.502;7.414;2024-03-23T03:39:30;7.70;88.80
2543;DHT22;1116;51.502;7.414;2024-03-23T03:41:57;7.60;88.10
2543;DHT22;1116;51.502;7.414;2024-03-23T03:44:23;7.60;86.50
2543;DHT22;1116;51.502;7.414;2024-03-23T03:46:50;7.60;84.90
2543;DHT22;1116;51.502;7.414;2024-03-23T03:49:19;7.60;89.40
2543;DHT22;1116;51.502;7.414;2024-03-23T03:51:46;7.50;86.80
2543;DHT22;1116;51.502;7.414;2024-03-23T03:54:12;7.50;83.30
2543;DHT22;1116;51.502;7.414;2024-03-23T03:56:39;7.40;86.60
2543;DHT22;1116;51.502;7.414;2024-03-23T03:59:05;7.40;80.90
2543;DHT22;1116;51.502;7.414;2024-03-23T04:01:32;7.40;77.40
2543;DHT22;1116;51.502;7.414;2024-03-23T04:03:58;7.40;77.60
2543;DHT22;1116;51.502;7.414;2024-03-23T04:06:27;7.40;80.00
2543;DHT22;1116;51.502;7.414;2024-03-23T04:08:53;7.50;77.20
2543;DHT22;1116;51.502;7.414;2024-03-23T04:11:20;7.50;76.70
2543;DHT22;1116;51.502;7.414;2024-03-23T04:13:46;7.50;82.10
2543;DHT22;1116;51.502;7.414;2024-03-23T04:16:12;7.50;81.60
2543;DHT22;1116;51.502;7.414;2024-03-23T04:18:39;7.50;79.50
2543;DHT22;1116;51.502;7.414;2024-03-23T04:21:05;7.50;89.10
2543;DHT22;1116;51.502;7.414;2024-03-23T04:23:34;7.60;82.70
2543;DHT22;1116;51.502;7.414;2024-03-23T04:26:03;7.60;81.80
2543;DHT22;1116;51.502;7.414;2024-03-23T04:28:30;7.60;82.70
2543;DHT22;1116;51.502;7.414;2024-03-23T04:30:56;7.40;80.80
2543;DHT22;1116;51.502;7.414;2024-03-23T04:33:23;7.30;82.90
2543;DHT22;1116;51.502;7.414;2024-03-23T04:35:49;7.40;81.20
2543;DHT22;1116;51.502;7.414;2024-03-23T04:38:15;7.40;81.00
2543;DHT22;1116;51.502;7.414;2024-03-23T04:40:45;7.30;84.50
2543;DHT22;1116;51.502;7.414;2024-03-23T04:43:11;7.40;84.20
2543;DHT22;1116;51.502;7.414;2024-03-23T04:45:37;7.30;81.10
2543;DHT22;1116;51.502;7.414;2024-03-23T04:48:04;7.30;82.60
2543;DHT22;1116;51.502;7.414;2024-03-23T04:50:31;7.30;85.70
2543;DHT22;1116;51.502;7.414;2024-03-23T04:52:57;7.30;85.60
2543;DHT22;1116;51.502;7.414;2024-03-23T04:55:23;7.20;85.50
2543;DHT22;1116;51.502;7.414;2024-03-23T04:57:52;7.20;85.50
2543;DHT22;1116;51.502;7.414;2024-03-23T05:00:19;7.30;85.60
2543;DHT22;1116;51.502;7.414;2024-03-23T05:02:45;7.30;85.90
2543;DHT22;1116;51.502;7.414;2024-03-23T05:05:12;7.20;86.30
2543;DHT22;1116;51.502;7.414;2024-03-23T05:07:38;7.20;89.80
2543;DHT22;1116;51.502;7.414;2024-03-23T05:10:05;7.20;91.00
2543;DHT22;1116;51.502;7.414;2024-03-23T05:12:31;7.30;90.50
2543;DHT22;1116;51.502;7.414;2024-03-23T05:15:00;7.30;90.80
2543;DHT22;1116;51.502;7.414;2024-03-23T05:17:26;7.30;90.20
2543;DHT22;1116;51.502;7.414;2024-03-23T05:19:53;7.30;89.80
2543;DHT22;1116;51.502;7.414;2024-03-23T05:22:19;7.20;90.50
2543;DHT22;1116;51.502;7.414;2024-03-23T05:24:46;7.20;93.30
2543;DHT22;1116;51.502;7.414;2024-03-23T05:27:12;7.30;94.30
2543;DHT22;1116;51.502;7.414;2024-03-23T05:29:39;7.20;93.60
2543;DHT22;1116;51.502;7.414;2024-03-23T05:32:08;7.20;92.50
2543;DHT22;1116;51.502;7.414;2024-03-23T05:34:35;7.10;91.50
2543;DHT22;1116;51.502;7.414;2024-03-23T05:37:01;7.10;92.10
2543;DHT22;1116;51.502;7.414;2024-03-23T05:39:28;7.00;92.10
2543;DHT22;1116;51.502;7.414;2024-03-23T05:41:55;7.00;96.10
2543;DHT22;1116;51.502;7.414;2024-03-23T05:44:21;7.00;94.90
2543;DHT22;1116;51.502;7.414;2024-03-23T05:46:47;6.90;97.60
2543;DHT22;1116;51.502;7.414;2024-03-23T05:49:16;7.00;99.90
2543;DHT22;1116;51.502;7.414;2024-03-23T05:51:43;7.00;99.90
2543;DHT22;1116;51.502;7.414;2024-03-23T05:54:09;7.00;99.90
2543;DHT22;1116;51.502;7.414;2024-03-23T05:56:35;7.00;99.90
2543;DHT22;1116;51.502;7.414;2024-03-23T05:59:02;6.90;99.90
2543;DHT22;1116;51.502;7.414;2024-03-23T06:01:29;7.00;99.90
2543;DHT22;1116;51.502;7.414;2024-03-23T06:03:56;6.90;99.90
2543;DHT22;1116;51.502;7.414;2024-03-23T06:06:25;6.90;99.90
2543;DHT22;1116;51.502;7.414;2024-03-23T06:08:51;6.90;99.90
2543;DHT22;1116;51.502;7.414;2024-03-23T06:11:18;6.90;99.90
2543;DHT22;1116;51.502;7.414;2024-03-23T06:13:44;6.90;99.90
2543;DHT22;1116;51.502;7.414;2024-03-23T06:16:10;6.90;99.90
2543;DHT22;1116;51.502;7.414;2024-03-23T06:18:37;6.90;99.90
2543;DHT22;1116;51.502;7.414;2024-03-23T06:21:03;7.00;99.90
2543;DHT22;1116;51.502;7.414;2024-03-23T06:23:32;6.90;99.90
2543;DHT22;1116;51.502;7.414;2024-03-23T06:25:59;7.00;99.90
2543;DHT22;1116;51.502;7.414;2024-03-23T06:28:25;7.00;99.90
2543;DHT22;1116;51.502;7.414;2024-03-23T06:30:51;7.10;99.90
2543;DHT22;1116;51.502;7.414;2024-03-23T06:33:18;7.10;99.90
2543;DHT22;1116;51.502;7.414;2024-03-23T06:35:49;7.20;99.90
2543;DHT22;1116;51.502;7.414;2024-03-23T06:38:16;7.10;99.90
2543;DHT22;1116;51.502;7.414;2024-03-23T06:40:45;7.10;99.90
2543;DHT22;1116;51.502;7.414;2024-03-23T06:43:12;7.10;99.90
2543;DHT22;1116;51.502;7.414;2024-03-23T06:45:38;7.10;99.90
2543;DHT22;1116;51.502;7.414;2024-03-23T06:48:05;7.20;99.90
2543;DHT22;1116;51.502;7.414;2024-03-23T06:50:32;7.20;99.90
2543;DHT22;1116;51.502;7.414;2024-03-23T06:52:59;7.20;99.90
2543;DHT22;1116;51.502;7.414;2024-03-23T06:55:25;7.30;99.90
2543;DHT22;1116;51.502;7.414;2024-03-23T06:57:54;7.30;99.90
2543;DHT22;1116;51.502;7.414;2024-03-23T07:00:20;7.40;99.90
2543;DHT22;1116;51.502;7.414;2024-03-23T07:02:47;7.40;99.90
2543;DHT22;1116;51.502;7.414;2024-03-23T07:05:13;7.40;99.90
2543;DHT22;1116;51.502;7.414;2024-03-23T07:07:40;7.40;99.90
2543;DHT22;1116;51.502;7.414;2024-03-23T07:10:07;7.30;99.90
2543;DHT22;1116;51.502;7.414;2024-03-23T07:12:33;7.40;99.90
2543;DHT22;1116;51.502;7.414;2024-03-23T07:15:02;7.50;99.90
2543;DHT22;1116;51.502;7.414;2024-03-23T07:17:29;7.60;99.90
2543;DHT22;1116;51.502;7.414;2024-03-23T07:19:55;7.60;99.90
2543;DHT22;1116;51.502;7.414;2024-03-23T07:22:21;7.70;99.90
2543;DHT22;1116;51.502;7.414;2024-03-23T07:24:47;7.90;99.90
2543;DHT22;1116;51.502;7.414;2024-03-23T07:27:13;7.90;99.90
2543;DHT22;1116;51.502;7.414;2024-03-23T07:29:40;8.00;99.90
2543;DHT22;1116;51.502;7.414;2024-03-23T07:32:09;8.10;99.90
2543;DHT22;1116;51.502;7.414;2024-03-23T07:34:35;8.10;99.90
2543;DHT22;1116;51.502;7.414;2024-03-23T07:37:01;8.20;99.90
2543;DHT22;1116;51.502;7.414;2024-03-23T07:39:28;8.30;99.90
2543;DHT22;1116;51.502;7.414;2024-03-23T07:41:54;8.60;99.90
2543;DHT22;1116;51.502;7.414;2024-03-23T07:44:21;8.80;99.90
2543;DHT22;1116;51.502;7.414;2024-03-23T07:46:47;8.90;99.90
2543;DHT22;1116;51.502;7.414;2024-03-23T07:49:16;8.90;99.90
2543;DHT22;1116;51.502;7.414;2024-03-23T07:51:42;9.00;99.90
2543;DHT22;1116;51.502;7.414;2024-03-23T07:54:09;9.00;99.90
2543;DHT22;1116;51.502;7.414;2024-03-23T07:56:35;9.10;99.90
2543;DHT22;1116;51.502;7.414;2024-03-23T07:59:02;9.20;96.10
2543;DHT22;1116;51.502;7.414;2024-03-23T08:01:29;9.30;95.70
2543;DHT22;1116;51.502;7.414;2024-03-23T08:03:56;9.30;90.60
2543;DHT22;1116;51.502;7.414;2024-03-23T08:06:25;9.40;90.90
2543;DHT22;1116;51.502;7.414;2024-03-23T08:08:54;9.30;82.60
2543;DHT22;1116;51.502;7.414;2024-03-23T08:11:25;9.20;78.00
2543;DHT22;1116;51.502;7.414;2024-03-23T08:13:52;9.30;83.50
2543;DHT22;1116;51.502;7.414;2024-03-23T08:16:19;9.40;75.20
2543;DHT22;1116;51.502;7.414;2024-03-23T08:18:45;9.50;80.00
2543;DHT22;1116;51.502;7.414;2024-03-23T08:21:11;9.60;77.50
2543;DHT22;1116;51.502;7.414;2024-03-23T08:23:40;9.70;73.10
2543;DHT22;1116;51.502;7.414;2024-03-23T08:26:08;9.80;73.20
2543;DHT22;1116;51.502;7.414;2024-03-23T08:28:35;9.80;63.00
2543;DHT22;1116;51.502;7.414;2024-03-23T08:31:02;9.80;65.30
2543;DHT22;1116;51.502;7.414;2024-03-23T08:33:28;9.70;62.30
2543;DHT22;1116;51.502;7.414;2024-03-23T08:35:55;10.00;58.50
2543;DHT22;1116;51.502;7.414;2024-03-23T08:38:22;9.70;57.70
2543;DHT22;1116;51.502;7.414;2024-03-23T08:40:59;9.50;54.20
2543;DHT22;1116;51.502;7.414;2024-03-23T08:43:26;9.60;59.30
2543;DHT22;1116;51.502;7.414;2024-03-23T08:45:52;9.60;55.80
2543;DHT22;1116;51.502;7.414;2024-03-23T08:48:19;9.60;53.70
2543;DHT22;1116;51.502;7.414;2024-03-23T08:50:46;9.60;54.70
2543;DHT22;1116;51.502;7.414;2024-03-23T08:53:12;9.70;48.30
2543;DHT22;1116;51.502;7.414;2024-03-23T08:55:39;9.70;46.40
2543;DHT22;1116;51.502;7.414;2024-03-23T08:58:08;9.80;43.00
2543;DHT22;1116;51.502;7.414;2024-03-23T09:00:34;9.90;44.30
2543;DHT22;1116;51.502;7.414;2024-03-23T09:03:01;10.10;38.10
2543;DHT22;1116;51.502;7.414;2024-03-23T09:05:27;10.10;37.30
2543;DHT22;1116;51.502;7.414;2024-03-23T09:07:54;10.20;38.00
2543;DHT22;1116;51.502;7.414;2024-03-23T09:10:20;10.10;33.50
2543;DHT22;1116;51.502;7.414;2024-03-23T09:12:47;10.20;35.00
2543;DHT22;1116;51.502;7.414;2024-03-23T09:15:16;10.20;31.90
2543;DHT22;1116;51.502;7.414;2024-03-23T09:17:42;10.00;34.00
2543;DHT22;1116;51.502;7.414;2024-03-23T09:20:10;9.90;37.60
2543;DHT22;1116;51.502;7.414;2024-03-23T09:22:37;9.90;35.00
2543;DHT22;1116;51.502;7.414;2024-03-23T09:25:04;9.80;35.60
2543;DHT22;1116;51.502;7.414;2024-03-23T09:27:31;9.60;33.40
2543;DHT22;1116;51.502;7.414;2024-03-23T09:29:57;9.50;33.80
2543;DHT22;1116;51.502;7.414;2024-03-23T09:32:26;9.30;32.10
2543;DHT22;1116;51.502;7.414;2024-03-23T09:34:53;9.10;34.90
2543;DHT22;1116;51.502;7.414;2024-03-23T09:37:19;9.10;30.30
2543;DHT22;1116;51.502;7.414;2024-03-23T09:39:45;9.10;31.20
2543;DHT22;1116;51.502;7.414;2024-03-23T09:42:11;9.10;31.90
2543;DHT22;1116;51.502;7.414;2024-03-23T09:44:38;9.10;34.00
2543;DHT22;1116;51.502;7.414;2024-03-23T09:47:04;9.00;33.20
2543;DHT22;1116;51.502;7.414;2024-03-23T09:49:33;8.80;33.60
2543;DHT22;1116;51.502;7.414;2024-03-23T09:52:00;8.80;31.80
2543;DHT22;1116;51.502;7.414;2024-03-23T09:54:27;9.00;31.90
2543;DHT22;1116;51.502;7.414;2024-03-23T09:56:53;9.30;33.90
2543;DHT22;1116;51.502;7.414;2024-03-23T09:59:19;9.50;32.30
2543;DHT22;1116;51.502;7.414;2024-03-23T10:01:47;9.70;32.50
2543;DHT22;1116;51.502;7.414;2024-03-23T10:04:38;9.80;32.20
2543;DHT22;1116;51.502;7.414;2024-03-23T10:07:11;9.90;31.40
2543;DHT22;1116;51.502;7.414;2024-03-23T10:09:39;10.00;28.30
2543;DHT22;1116;51.502;7.414;2024-03-23T10:12:09;10.10;26.80
2543;DHT22;1116;51.502;7.414;2024-03-23T10:14:37;10.20;27.20
2543;DHT22;1116;51.502;7.414;2024-03-23T10:17:14;10.40;28.80
2543;DHT22;1116;51.502;7.414;2024-03-23T10:19:43;10.70;26.90
2543;DHT22;1116;51.502;7.414;2024-03-23T10:22:13;10.70;23.60
2543;DHT22;1116;51.502;7.414;2024-03-23T10:24:40;10.50;23.50
2543;DHT22;1116;51.502;7.414;2024-03-23T10:27:07;10.20;23.30
2543;DHT22;1116;51.502;7.414;2024-03-23T10:29:33;10.10;24.40
2543;DHT22;1116;51.502;7.414;2024-03-23T10:32:08;9.90;22.90
2543;DHT22;1116;51.502;7.414;2024-03-23T10:34:35;9.80;24.40
2543;DHT22;1116;51.502;7.414;2024-03-23T10:37:06;9.70;20.00
2543;DHT22;1116;51.502;7.414;2024-03-23T10:39:33;9.70;21.40
2543;DHT22;1116;51.502;7.414;2024-03-23T10:42:02;9.80;24.70
2543;DHT22;1116;51.502;7.414;2024-03-23T10:44:29;10.10;21.20
2543;DHT22;1116;51.502;7.414;2024-03-23T10:46:56;10.10;20.20
2543;DHT22;1116;51.502;7.414;2024-03-23T10:49:23;10.30;19.70
2543;DHT22;1116;51.502;7.414;2024-03-23T10:51:49;10.20;14.60
2543;DHT22;1116;51.502;7.414;2024-03-23T10:54:18;10.20;17.60
2543;DHT22;1116;51.502;7.414;2024-03-23T10:56:47;10.20;14.60
2543;DHT22;1116;51.502;7.414;2024-03-23T10:59:15;10.10;13.30
2543;DHT22;1116;51.502;7.414;2024-03-23T11:01:54;10.10;12.90
2543;DHT22;1116;51.502;7.414;2024-03-23T11:04:30;10.00;15.40
2543;DHT22;1116;51.502;7.414;2024-03-23T11:06:57;10.10;16.40
2543;DHT22;1116;51.502;7.414;2024-03-23T11:09:41;10.00;18.90
2543;DHT22;1116;51.502;7.414;2024-03-23T11:12:24;10.10;14.60
2543;DHT22;1116;51.502;7.414;2024-03-23T11:14:52;10.00;14.00
2543;DHT22;1116;51.502;7.414;2024-03-23T11:17:20;10.00;12.20
2543;DHT22;1116;51.502;7.414;2024-03-23T11:19:53;10.00;12.00
2543;DHT22;1116;51.502;7.414;2024-03-23T11:22:39;9.50;12.10
2543;DHT22;1116;51.502;7.414;2024-03-23T11:25:16;8.90;16.00
2543;DHT22;1116;51.502;7.414;2024-03-23T11:27:44;8.40;15.90
2543;DHT22;1116;51.502;7.414;2024-03-23T11:30:15;8.20;18.60
2543;DHT22;1116;51.502;7.414;2024-03-23T11:32:43;7.90;19.80
2543;DHT22;1116;51.502;7.414;2024-03-23T11:35:09;7.70;21.20
2543;DHT22;1116;51.502;7.414;2024-03-23T11:37:37;7.70;22.40
2543;DHT22;1116;51.502;7.414;2024-03-23T11:40:23;7.70;21.60
2543;DHT22;1116;51.502;7.414;2024-03-23T11:42:55;7.80;21.00
2543;DHT22;1116;51.502;7.414;2024-03-23T11:45:22;7.80;20.20
2543;DHT22;1116;51.502;7.414;2024-03-23T11:47:48;7.90;24.40
2543;DHT22;1116;51.502;7.414;2024-03-23T11:50:19;8.10;23.40
2543;DHT22;1116;51.502;7.414;2024-03-23T11:52:46;8.40;25.80
2543;DHT22;1116;51.502;7.414;2024-03-23T11:55:12;8.70;24.30
2543;DHT22;1116;51.502;7.414;2024-03-23T11:57:43;8.90;23.30
2543;DHT22;1116;51.502;7.414;2024-03-23T12:00:22;9.00;23.20
2543;DHT22;1116;51.502;7.414;2024-03-23T12:02:49;9.20;23.30
2543;DHT22;1116;51.502;7.414;2024-03-23T12:05:16;9.30;22.00
2543;DHT22;1116;51.502;7.414;2024-03-23T12:07:42;9.30;20.50
2543;DHT22;1116;51.502;7.414;2024-03-23T12:10:09;9.30;20.50
2543;DHT22;1116;51.502;7.414;2024-03-23T12:12:35;9.40;18.50
2543;DHT22;1116;51.502;7.414;2024-03-23T12:15:05;9.50;18.70
2543;DHT22;1116;51.502;7.414;2024-03-23T12:17:31;9.60;16.30
2543;DHT22;1116;51.502;7.414;2024-03-23T12:19:58;9.80;17.20
2543;DHT22;1116;51.502;7.414;2024-03-23T12:22:25;10.10;17.10
2543;DHT22;1116;51.502;7.414;2024-03-23T12:24:51;10.30;15.70
2543;DHT22;1116;51.502;7.414;2024-03-23T12:27:18;10.40;14.70
2543;DHT22;1116;51.502;7.414;2024-03-23T12:29:44;10.30;12.50
2543;DHT22;1116;51.502;7.414;2024-03-23T12:32:14;10.30;12.30
2543;DHT22;1116;51.502;7.414;2024-03-23T12:34:40;10.40;11.80
2543;DHT22;1116;51.502;7.414;2024-03-23T12:37:07;10.50;11.20
2543;DHT22;1116;51.502;7.414;2024-03-23T12:39:34;10.50;8.10
2543;DHT22;1116;51.502;7.414;2024-03-23T12:42:00;10.60;8.60
2543;DHT22;1116;51.502;7.414;2024-03-23T12:44:26;10.70;7.60
2543;DHT22;1116;51.502;7.414;2024-03-23T12:46:54;11.00;6.70
2543;DHT22;1116;51.502;7.414;2024-03-23T12:49:23;10.50;6.50
2543;DHT22;1116;51.502;7.414;2024-03-23T12:51:55;10.20;7.20
2543;DHT22;1116;51.502;7.414;2024-03-23T12:54:21;10.10;7.50
2543;DHT22;1116;51.502;7.414;2024-03-23T12:56:48;10.00;10.00
2543;DHT22;1116;51.502;7.414;2024-03-23T12:59:14;9.90;8.90
2543;DHT22;1116;51.502;7.414;2024-03-23T13:01:41;9.60;9.30
2543;DHT22;1116;51.502;7.414;2024-03-23T13:04:07;9.60;9.70
2543;DHT22;1116;51.502;7.414;2024-03-23T13:06:36;9.80;10.60
2543;DHT22;1116;51.502;7.414;2024-03-23T13:09:03;10.00;9.60
2543;DHT22;1116;51.502;7.414;2024-03-23T13:11:29;10.10;7.30
2543;DHT22;1116;51.502;7.414;2024-03-23T13:13:56;10.10;8.60
2543;DHT22;1116;51.502;7.414;2024-03-23T13:16:22;10.30;6.90
2543;DHT22;1116;51.502;7.414;2024-03-23T13:18:48;10.30;6.00
2543;DHT22;1116;51.502;7.414;2024-03-23T13:21:15;10.40;10.30
2543;DHT22;1116;51.502;7.414;2024-03-23T13:23:46;10.60;8.20
2543;DHT22;1116;51.502;7.414;2024-03-23T13:26:13;10.80;6.60
2543;DHT22;1116;51.502;7.414;2024-03-23T13:28:39;10.50;5.80
2543;DHT22;1116;51.502;7.414;2024-03-23T13:31:05;10.30;7.80
2543;DHT22;1116;51.502;7.414;2024-03-23T13:33:31;10.10;8.50
2543;DHT22;1116;51.502;7.414;2024-03-23T13:35:58;9.90;9.20
2543;DHT22;1116;51.502;7.414;2024-03-23T13:38:25;9.40;14.80
2543;DHT22;1116;51.502;7.414;2024-03-23T13:40:55;8.90;18.40
2543;DHT22;1116;51.502;7.414;2024-03-23T13:43:22;8.30;20.10
2543;DHT22;1116;51.502;7.414;2024-03-23T13:45:52;8.00;22.20
2543;DHT22;1116;51.502;7.414;2024-03-23T13:48:20;7.70;24.30
2543;DHT22;1116;51.502;7.414;2024-03-23T13:50:47;7.60;25.80
2543;DHT22;1116;51.502;7.414;2024-03-23T13:53:13;7.70;28.10
2543;DHT22;1116;51.502;7.414;2024-03-23T13:55:46;7.90;33.60
2543;DHT22;1116;51.502;7.414;2024-03-23T13:58:16;8.20;38.20
2543;DHT22;1116;51.502;7.414;2024-03-23T14:00:42;8.40;35.80
2543;DHT22;1116;51.502;7.414;2024-03-23T14:03:09;8.60;34.70
2543;DHT22;1116;51.502;7.414;2024-03-23T14:05:36;8.50;28.90
2543;DHT22;1116;51.502;7.414;2024-03-23T14:08:03;8.40;27.10
2543;DHT22;1116;51.502;7.414;2024-03-23T14:10:29;8.40;27.00
2543;DHT22;1116;51.502;7.414;2024-03-23T14:12:56;8.30;26.20
2543;DHT22;1116;51.502;7.414;2024-03-23T14:15:24;8.30;25.30
2543;DHT22;1116;51.502;7.414;2024-03-23T14:17:51;8.40;25.00
2543;DHT22;1116;51.502;7.414;2024-03-23T14:20:17;8.40;28.40
2543;DHT22;1116;51.502;7.414;2024-03-23T14:22:43;8.40;25.80
2543;DHT22;1116;51.502;7.414;2024-03-23T14:25:10;8.50;29.50
2543;DHT22;1116;51.502;7.414;2024-03-23T14:27:36;8.60;28.30
2543;DHT22;1116;51.502;7.414;2024-03-23T14:30:04;8.70;29.60
2543;DHT22;1116;51.502;7.414;2024-03-23T14:32:33;8.80;29.00
2543;DHT22;1116;51.502;7.414;2024-03-23T14:35:00;8.90;27.40
2543;DHT22;1116;51.502;7.414;2024-03-23T14:37:26;9.00;31.20
2543;DHT22;1116;51.502;7.414;2024-03-23T14:39:52;9.10;32.00
2543;DHT22;1116;51.502;7.414;2024-03-23T14:42:19;9.30;29.20
2543;DHT22;1116;51.502;7.414;2024-03-23T14:44:48;9.40;29.00
2543;DHT22;1116;51.502;7.414;2024-03-23T14:47:14;9.40;25.20
2543;DHT22;1116;51.502;7.414;2024-03-23T14:49:43;9.20;21.90
2543;DHT22;1116;51.502;7.414;2024-03-23T14:52:11;9.10;20.40
2543;DHT22;1116;51.502;7.414;2024-03-23T14:54:37;9.10;20.70
2543;DHT22;1116;51.502;7.414;2024-03-23T14:57:06;9.00;20.20
2543;DHT22;1116;51.502;7.414;2024-03-23T14:59:32;9.00;20.10
2543;DHT22;1116;51.502;7.414;2024-03-23T15:01:59;9.00;19.30
2543;DHT22;1116;51.502;7.414;2024-03-23T15:04:25;9.00;22.90
2543;DHT22;1116;51.502;7.414;2024-03-23T15:06:54;9.10;23.30
2543;DHT22;1116;51.502;7.414;2024-03-23T15:09:20;9.20;16.90
2543;DHT22;1116;51.502;7.414;2024-03-23T15:11:46;9.30;14.70
2543;DHT22;1116;51.502;7.414;2024-03-23T15:14:13;9.30;14.80
2543;DHT22;1116;51.502;7.414;2024-03-23T15:16:39;9.30;14.70
2543;DHT22;1116;51.502;7.414;2024-03-23T15:19:05;9.30;15.10
2543;DHT22;1116;51.502;7.414;2024-03-23T15:21:32;9.20;15.30
2543;DHT22;1116;51.502;7.414;2024-03-23T15:24:01;9.10;10.70
2543;DHT22;1116;51.502;7.414;2024-03-23T15:26:30;9.40;12.80
2543;DHT22;1116;51.502;7.414;2024-03-23T15:28:56;9.10;12.10
2543;DHT22;1116;51.502;7.414;2024-03-23T15:31:37;9.10;10.70
2543;DHT22;1116;51.502;7.414;2024-03-23T15:34:04;9.10;10.90
2543;DHT22;1116;51.502;7.414;2024-03-23T15:36:30;9.20;13.60
2543;DHT22;1116;51.502;7.414;2024-03-23T15:39:00;9.20;10.10
2543;DHT22;1116;51.502;7.414;2024-03-23T15:41:26;9.00;10.20
2543;DHT22;1116;51.502;7.414;2024-03-23T15:43:52;9.00;12.10
2543;DHT22;1116;51.502;7.414;2024-03-23T15:46:19;9.00;11.90
2543;DHT22;1116;51.502;7.414;2024-03-23T15:48:45;8.90;12.60
2543;DHT22;1116;51.502;7.414;2024-03-23T15:51:12;8.90;11.20
2543;DHT22;1116;51.502;7.414;2024-03-23T15:53:39;8.90;13.90
2543;DHT22;1116;51.502;7.414;2024-03-23T15:56:08;9.00;12.90
2543;DHT22;1116;51.502;7.414;2024-03-23T15:58:35;9.20;14.30
2543;DHT22;1116;51.502;7.414;2024-03-23T16:01:02;9.30;14.70
2543;DHT22;1116;51.502;7.414;2024-03-23T16:03:29;9.30;12.40
2543;DHT22;1116;51.502;7.414;2024-03-23T16:05:57;9.30;14.20
2543;DHT22;1116;51.502;7.414;2024-03-23T16:08:23;9.30;12.80
2543;DHT22;1116;51.502;7.414;2024-03-23T16:10:50;9.00;11.30
2543;DHT22;1116;51.502;7.414;2024-03-23T16:13:20;9.40;11.00
2543;DHT22;1116;51.502;7.414;2024-03-23T16:15:54;9.30;11.90
2543;DHT22;1116;51.502;7.414;2024-03-23T16:18:21;9.30;11.20
2543;DHT22;1116;51.502;7.414;2024-03-23T16:20:52;9.20;10.90
2543;DHT22;1116;51.502;7.414;2024-03-23T16:23:19;9.20;9.40
2543;DHT22;1116;51.502;7.414;2024-03-23T16:25:47;9.10;10.00
2543;DHT22;1116;51.502;7.414;2024-03-23T16:28:15;9.20;10.20
2543;DHT22;1116;51.502;7.414;2024-03-23T16:30:44;9.20;11.10
2543;DHT22;1116;51.502;7.414;2024-03-23T16:33:10;9.10;10.10
2543;DHT22;1116;51.502;7.414;2024-03-23T16:35:36;9.20;11.40
2543;DHT22;1116;51.502;7.414;2024-03-23T16:38:03;9.20;10.90
2543;DHT22;1116;51.502;7.414;2024-03-23T16:40:29;9.10;10.00
2543;DHT22;1116;51.502;7.414;2024-03-23T16:42:55;9.10;9.00
2543;DHT22;1116;51.502;7.414;2024-03-23T16:45:22;9.00;7.20
2543;DHT22;1116;51.502;7.414;2024-03-23T16:47:51;8.90;7.50
2543;DHT22;1116;51.502;7.414;2024-03-23T16:50:18;8.80;8.80
2543;DHT22;1116;51.502;7.414;2024-03-23T16:52:44;8.70;7.50
2543;DHT22;1116;51.502;7.414;2024-03-23T16:55:10;8.60;7.60
2543;DHT22;1116;51.502;7.414;2024-03-23T16:57:36;8.60;9.90
2543;DHT22;1116;51.502;7.414;2024-03-23T17:00:03;8.50;9.00
2543;DHT22;1116;51.502;7.414;2024-03-23T17:02:29;8.60;8.60
2543;DHT22;1116;51.502;7.414;2024-03-23T17:04:58;8.60;8.80
2543;DHT22;1116;51.502;7.414;2024-03-23T17:07:25;8.50;10.40
2543;DHT22;1116;51.502;7.414;2024-03-23T17:09:51;8.50;9.40
2543;DHT22;1116;51.502;7.414;2024-03-23T17:12:17;8.40;9.80